createdAt,value
2018-03-06T00:01:48.381Z,139.00
2018-03-06T00:04:19.832Z,148.95
2018-03-06T00:06:50.502Z,140.37
2018-03-06T00:09:21.997Z,134.70
2018-03-06T00:11:52.680Z,139.05
2018-03-06T00:14:23.303Z,149.07
2018-03-06T00:16:53.610Z,141.40
2018-03-06T00:19:24.332Z,141.35
2018-03-06T00:21:55.019Z,147.23
2018-03-06T00:24:25.298Z,147.50
2018-03-06T00:26:55.883Z,159.07
2018-03-06T00:29:27.583Z,157.00
2018-03-06T00:31:58.395Z,149.50
2018-03-06T00:34:29.374Z,157.52
2018-03-06T00:37:01.892Z,131.70
2018-03-06T00:39:32.843Z,138.15
2018-03-06T00:42:03.540Z,134.02
2018-03-06T00:44:33.779Z,131.15
2018-03-06T00:47:03.993Z,129.35
2018-03-06T00:49:35.000Z,128.23
2018-03-06T00:52:06.320Z,132.90
2018-03-06T00:54:37.100Z,136.23
2018-03-06T00:57:08.611Z,143.20
2018-03-06T00:59:40.660Z,148.60
2018-03-06T01:02:11.690Z,149.15
2018-03-06T01:04:42.318Z,138.63
2018-03-06T01:07:13.426Z,140.35
2018-03-06T01:09:44.820Z,139.12
2018-03-06T01:12:15.432Z,132.48
2018-03-06T01:14:46.479Z,139.70
2018-03-06T01:17:16.972Z,137.95
2018-03-06T01:19:47.984Z,131.95
2018-03-06T01:22:20.432Z,131.07
2018-03-06T01:24:51.981Z,133.65
2018-03-06T01:27:22.889Z,135.02
2018-03-06T01:29:53.561Z,141.45
2018-03-06T01:32:24.257Z,145.73
2018-03-06T01:34:54.905Z,154.52
2018-03-06T01:37:26.326Z,147.10
2018-03-06T01:39:57.663Z,133.30
2018-03-06T01:42:28.564Z,154.87
2018-03-06T01:44:59.779Z,158.73
2018-03-06T01:47:31.297Z,158.43
2018-03-06T01:50:03.069Z,159.27
2018-03-06T01:52:34.808Z,152.57
2018-03-06T01:55:06.342Z,151.52
2018-03-06T01:57:37.236Z,147.50
2018-03-06T02:00:08.067Z,157.93
2018-03-06T02:02:39.160Z,155.27
2018-03-06T02:05:10.104Z,161.57
2018-03-06T02:07:41.683Z,157.40
2018-03-06T02:10:12.420Z,166.45
2018-03-06T02:12:43.710Z,173.90
2018-03-06T02:15:14.741Z,172.13
2018-03-06T02:17:45.020Z,178.25
2018-03-06T02:20:16.475Z,156.60
2018-03-06T02:22:47.963Z,157.90
2018-03-06T02:25:18.659Z,167.80
2018-03-06T02:27:49.316Z,173.27
2018-03-06T02:30:19.995Z,179.70
2018-03-06T02:32:51.508Z,184.73
2018-03-06T02:35:23.047Z,180.23
2018-03-06T02:37:53.761Z,173.57
2018-03-06T02:40:24.954Z,177.55
2018-03-06T02:42:56.040Z,173.70
2018-03-06T02:45:27.363Z,168.15
2018-03-06T02:47:58.048Z,191.60
2018-03-06T02:50:29.970Z,182.12
2018-03-06T02:53:01.433Z,168.82
2018-03-06T02:55:32.094Z,169.90
2018-03-06T02:58:03.324Z,168.37
2018-03-06T03:00:35.488Z,174.75
2018-03-06T03:03:07.250Z,166.35
2018-03-06T03:05:38.157Z,158.27
2018-03-06T03:08:09.052Z,153.23
2018-03-06T03:10:40.892Z,158.65
2018-03-06T03:13:11.564Z,162.80
2018-03-06T03:15:42.528Z,162.48
2018-03-06T03:18:12.942Z,150.15
2018-03-06T03:20:44.224Z,144.23
2018-03-06T03:23:15.691Z,145.27
2018-03-06T03:25:46.480Z,144.23
2018-03-06T03:28:17.163Z,147.85
2018-03-06T03:30:48.173Z,148.82
2018-03-06T03:33:18.795Z,142.27
2018-03-06T03:35:49.976Z,140.75
2018-03-06T03:38:20.803Z,159.45
2018-03-06T03:44:41.015Z,156.32
2018-03-06T03:47:12.468Z,170.27
2018-03-06T03:49:43.933Z,163.20
2018-03-06T03:52:15.145Z,173.90
2018-03-06T03:54:46.469Z,181.85
2018-03-06T03:57:17.517Z,153.05
2018-03-06T03:59:48.045Z,159.93
2018-03-06T04:02:19.025Z,150.87
2018-03-06T04:04:49.602Z,152.60
2018-03-06T04:07:20.514Z,159.65
2018-03-06T04:09:51.528Z,150.60
2018-03-06T04:12:22.805Z,149.02
2018-03-06T04:14:53.657Z,146.05
2018-03-06T04:17:24.903Z,150.30
2018-03-06T04:20:09.826Z,155.82
2018-03-06T04:22:50.748Z,143.15
2018-03-06T04:25:22.537Z,141.27
2018-03-06T04:27:53.486Z,145.18
2018-03-06T04:30:25.121Z,139.10
2018-03-06T04:32:59.410Z,144.70
2018-03-06T04:35:30.551Z,148.18
2018-03-06T04:38:02.020Z,142.35
2018-03-06T04:40:32.678Z,155.48
2018-03-06T04:43:31.597Z,133.25
2018-03-06T04:46:02.408Z,144.85
2018-03-06T04:48:32.933Z,152.48
2018-03-06T04:51:04.516Z,153.32
2018-03-06T04:53:34.778Z,153.87
2018-03-06T04:56:05.383Z,154.70
2018-03-06T04:58:36.271Z,152.60
2018-03-06T05:01:07.637Z,154.27
2018-03-06T05:03:39.293Z,159.27
2018-03-06T05:06:09.964Z,162.05
2018-03-06T05:08:43.889Z,158.68
2018-03-06T05:11:14.864Z,149.93
2018-03-06T05:13:45.869Z,155.15
2018-03-06T05:16:16.365Z,163.07
2018-03-06T05:18:52.351Z,150.43
2018-03-06T05:21:23.138Z,150.60
2018-03-06T05:23:55.000Z,155.32
2018-03-06T05:26:26.659Z,177.00
2018-03-06T05:28:57.314Z,178.97
2018-03-06T05:31:28.128Z,170.60
2018-03-06T05:33:58.849Z,161.12
2018-03-06T05:36:29.602Z,162.65
2018-03-06T05:39:03.907Z,166.60
2018-03-06T05:41:41.185Z,176.98
2018-03-06T05:44:11.543Z,199.20
2018-03-06T05:46:42.329Z,205.80
2018-03-06T05:49:13.368Z,221.40
2018-03-06T05:51:44.586Z,222.57
2018-03-06T05:54:23.860Z,241.75
2018-03-06T05:56:55.300Z,235.20
2018-03-06T06:03:08.760Z,208.43
2018-03-06T06:05:40.848Z,189.55
2018-03-06T06:08:13.128Z,180.87
2018-03-06T06:10:44.009Z,171.60
2018-03-06T06:13:15.513Z,178.02
2018-03-06T06:15:49.533Z,199.15
2018-03-06T06:18:20.676Z,190.07
2018-03-06T06:20:51.531Z,192.77
2018-03-06T06:23:22.306Z,170.73
2018-03-06T06:25:57.323Z,176.98
2018-03-06T06:32:21.966Z,180.77
2018-03-06T06:35:02.320Z,172.70
2018-03-06T06:37:33.328Z,163.05
2018-03-06T06:40:04.641Z,164.93
2018-03-06T06:42:38.614Z,172.45
2018-03-06T06:45:17.233Z,171.03
2018-03-06T06:47:53.320Z,171.15
2018-03-06T06:50:35.599Z,170.20
2018-03-06T06:53:07.818Z,167.20
2018-03-06T06:55:39.391Z,157.70
2018-03-06T06:58:11.333Z,166.90
2018-03-06T07:00:43.808Z,167.27
2018-03-06T07:03:16.052Z,155.32
2018-03-06T07:05:47.836Z,159.20
2018-03-06T07:08:20.322Z,161.25
2018-03-06T07:11:12.681Z,169.32
2018-03-06T07:13:44.102Z,182.77
2018-03-06T07:16:16.618Z,187.77
2018-03-06T07:18:48.585Z,179.27
2018-03-06T07:21:20.301Z,189.15
2018-03-06T07:23:52.727Z,175.00
2018-03-06T07:26:24.721Z,188.77
2018-03-06T07:28:56.628Z,179.30
2018-03-06T07:31:27.517Z,179.38
2018-03-06T07:33:59.697Z,165.80
2018-03-06T07:36:31.027Z,192.52
2018-03-06T07:39:45.112Z,186.95
2018-03-06T07:42:16.395Z,171.73
2018-03-06T07:44:49.142Z,177.07
2018-03-06T07:47:21.183Z,170.50
2018-03-06T07:49:53.158Z,161.82
2018-03-06T07:52:25.512Z,174.02
2018-03-06T07:54:56.268Z,207.80
2018-03-06T07:57:28.359Z,212.23
2018-03-06T08:00:13.716Z,214.98
2018-03-06T08:02:49.128Z,237.90
2018-03-06T08:06:03.692Z,211.05
2018-03-06T08:11:58.453Z,217.93
2018-03-06T08:14:30.757Z,215.85
2018-03-06T08:17:01.761Z,226.95
2018-03-06T08:19:32.908Z,200.60
2018-03-06T08:22:03.671Z,206.32
2018-03-06T08:24:35.607Z,213.32
2018-03-06T08:27:07.920Z,204.87
2018-03-06T08:30:14.387Z,199.98
2018-03-06T08:33:07.347Z,233.95
2018-03-06T08:36:14.516Z,212.80
2018-03-06T08:42:27.951Z,252.50
2018-03-06T08:45:48.022Z,223.85
2018-03-06T08:48:36.918Z,213.20
2018-03-06T08:54:53.104Z,248.57
2018-03-06T08:57:32.180Z,216.27
2018-03-06T09:00:04.608Z,212.33
2018-03-06T09:02:38.226Z,217.55
2018-03-06T09:05:24.643Z,230.77
2018-03-06T09:07:55.370Z,231.30
2018-03-06T09:10:28.685Z,233.20
2018-03-06T09:13:01.965Z,216.98
2018-03-06T09:15:35.411Z,216.90
2018-03-06T09:18:06.702Z,222.40
2018-03-06T09:20:43.395Z,212.80
2018-03-06T09:23:19.728Z,220.40
2018-03-06T09:25:50.946Z,203.77
2018-03-06T09:28:23.285Z,199.70
2018-03-06T09:30:56.526Z,196.37
2018-03-06T09:33:38.178Z,211.27
2018-03-06T09:36:14.880Z,198.02
2018-03-06T09:38:46.536Z,209.15
2018-03-06T09:41:20.075Z,192.63
2018-03-06T09:43:52.305Z,195.48
2018-03-06T09:46:23.863Z,197.33
2018-03-06T09:49:39.569Z,180.10
2018-03-06T09:55:46.998Z,171.48
2018-03-06T09:58:17.738Z,153.75
2018-03-06T10:00:49.020Z,159.07
2018-03-06T10:06:56.232Z,173.95
2018-03-06T10:09:28.570Z,161.52
2018-03-06T10:12:07.892Z,161.00
2018-03-06T10:14:38.562Z,159.57
2018-03-06T10:17:26.155Z,175.80
2018-03-06T10:20:06.182Z,156.90
2018-03-06T10:22:41.259Z,170.47
2018-03-06T10:25:15.291Z,190.45
2018-03-06T10:28:12.180Z,194.70
2018-03-06T10:30:45.737Z,193.10
2018-03-06T10:33:18.579Z,199.18
2018-03-06T10:35:52.568Z,213.10
2018-03-06T10:38:33.389Z,186.48
2018-03-06T10:41:43.914Z,210.93
2018-03-06T10:44:15.839Z,199.57
2018-03-06T11:00:29.223Z,175.60
2018-03-06T11:03:35.740Z,190.20
2018-03-06T11:06:12.612Z,168.85
2018-03-06T11:09:07.857Z,178.83
2018-03-06T11:11:55.939Z,195.23
2018-03-06T11:17:23.997Z,220.23
2018-03-06T11:19:56.428Z,207.52
2018-03-06T11:22:27.472Z,199.00
2018-03-06T11:25:39.915Z,191.43
2018-03-06T11:28:16.036Z,216.70
2018-03-06T11:30:47.791Z,181.57
2018-03-06T11:33:33.511Z,215.15
2018-03-06T11:36:12.199Z,197.20
2018-03-06T11:38:43.291Z,192.47
2018-03-06T11:41:29.576Z,171.20
2018-03-06T11:44:04.580Z,182.60
2018-03-06T11:46:35.670Z,176.12
2018-03-06T11:49:06.688Z,165.80
2018-03-06T11:51:37.763Z,151.60
2018-03-06T11:54:19.001Z,144.32
2018-03-06T11:59:44.670Z,165.80
2018-03-06T12:02:17.254Z,148.33
2018-03-06T12:04:51.385Z,169.00
2018-03-06T12:08:33.622Z,181.30
2018-03-06T12:11:10.824Z,168.35
2018-03-06T12:13:53.341Z,140.88
2018-03-06T12:16:27.778Z,158.18
2018-03-06T12:18:59.927Z,160.98
2018-03-06T12:21:31.901Z,149.80
2018-03-06T12:24:05.468Z,148.85
2018-03-06T12:26:36.124Z,150.30
2018-03-06T12:29:09.030Z,142.25
2018-03-06T12:31:40.120Z,125.32
2018-03-06T12:34:48.273Z,136.68
2018-03-06T12:37:19.630Z,138.75
2018-03-06T12:40:54.043Z,129.73
2018-03-06T12:43:37.156Z,117.68
2018-03-06T12:46:10.076Z,129.10
2018-03-06T12:48:41.692Z,130.50
2018-03-06T12:51:12.754Z,132.47
2018-03-06T12:53:49.760Z,129.80
2018-03-06T12:56:32.851Z,138.37
2018-03-06T12:59:04.766Z,135.90
2018-03-06T13:01:35.523Z,127.32
2018-03-06T13:04:06.509Z,139.55
2018-03-06T13:06:38.485Z,143.80
2018-03-06T13:09:15.149Z,138.60
2018-03-06T13:12:02.406Z,134.70
2018-03-06T13:14:33.746Z,120.37
2018-03-06T13:17:11.960Z,118.80
2018-03-06T13:19:43.250Z,108.47
2018-03-06T13:22:14.745Z,117.03
2018-03-06T13:24:45.896Z,114.65
2018-03-06T13:27:17.963Z,114.70
2018-03-06T13:29:49.491Z,119.55
2018-03-06T13:32:20.123Z,123.28
2018-03-06T13:34:52.464Z,113.62
2018-03-06T13:37:29.637Z,117.78
2018-03-06T13:40:06.718Z,109.93
2018-03-06T13:42:40.991Z,119.82
2018-03-06T13:45:12.084Z,114.72
2018-03-06T13:47:45.972Z,124.43
2018-03-06T13:50:21.814Z,131.50
2018-03-06T13:56:22.949Z,140.57
2018-03-06T13:58:57.906Z,135.13
2018-03-06T14:01:33.041Z,144.37
2018-03-06T14:04:04.507Z,128.95
2018-03-06T14:06:58.484Z,109.40
2018-03-06T14:09:35.710Z,115.28
2018-03-06T14:12:07.691Z,128.52
2018-03-06T14:15:13.855Z,128.38
2018-03-06T14:18:05.608Z,138.60
2018-03-06T14:20:38.721Z,140.70
2018-03-06T14:23:10.185Z,131.20
2018-03-06T14:26:14.022Z,130.68
2018-03-06T14:28:45.215Z,154.15
2018-03-06T14:31:30.159Z,161.47
2018-03-06T14:49:44.429Z,126.45
2018-03-06T14:52:14.826Z,137.40
2018-03-06T14:58:06.199Z,124.25
2018-03-06T15:00:49.512Z,122.43
2018-03-06T15:09:58.157Z,134.53
2018-03-06T15:15:27.607Z,125.72
2018-03-06T15:18:07.961Z,105.28
2018-03-06T15:20:39.110Z,112.25
2018-03-06T15:23:12.368Z,116.32
2018-03-06T15:25:46.978Z,113.57
2018-03-06T15:31:48.083Z,109.45
2018-03-06T15:34:29.287Z,99.37
2018-03-06T15:37:42.427Z,107.05
2018-03-06T15:40:26.449Z,100.40
2018-03-06T15:43:35.538Z,104.10
2018-03-06T15:46:06.367Z,129.43
2018-03-06T15:48:36.985Z,142.85
2018-03-06T15:51:14.833Z,127.45
2018-03-06T15:53:58.256Z,129.45
2018-03-06T15:56:34.418Z,143.62
2018-03-06T15:59:52.861Z,155.20
2018-03-06T16:02:58.303Z,155.73
2018-03-06T16:08:53.743Z,130.40
2018-03-06T16:11:52.335Z,132.90
2018-03-06T16:14:27.563Z,137.48
2018-03-06T16:17:18.541Z,138.18
2018-03-06T16:20:15.559Z,146.52
2018-03-06T16:23:27.714Z,153.62
2018-03-06T16:26:01.803Z,139.65
2018-03-06T16:28:35.164Z,137.30
2018-03-06T16:36:08.166Z,150.02
2018-03-06T16:38:40.112Z,153.60
2018-03-06T16:41:15.495Z,145.93
2018-03-06T16:44:09.421Z,137.80
2018-03-06T16:46:52.144Z,159.98
2018-03-06T16:49:26.425Z,173.20
2018-03-06T16:52:06.427Z,176.70
2018-03-06T16:54:42.155Z,170.02
2018-03-06T16:57:23.265Z,156.25
2018-03-06T16:59:55.720Z,146.97
2018-03-06T17:02:27.369Z,149.70
2018-03-06T17:05:10.424Z,137.07
2018-03-06T17:15:04.056Z,148.32
2018-03-06T17:17:35.124Z,156.02
2018-03-06T17:20:08.010Z,142.98
2018-03-06T17:22:41.358Z,167.73
2018-03-06T17:25:12.672Z,148.97
2018-03-06T17:27:47.420Z,146.52
2018-03-06T17:33:59.279Z,152.73
2018-03-06T17:36:32.195Z,152.65
2018-03-06T17:39:11.692Z,129.52
2018-03-06T17:41:43.977Z,131.85
2018-03-06T17:44:54.847Z,129.18
2018-03-06T17:47:28.360Z,113.97
2018-03-06T17:50:00.013Z,143.82
2018-03-06T17:52:35.549Z,153.38
2018-03-06T17:55:06.518Z,134.57
2018-03-06T17:57:37.876Z,145.52
2018-03-06T18:00:11.692Z,144.85
2018-03-06T18:02:45.455Z,141.48
2018-03-06T18:05:16.965Z,154.45
2018-03-06T18:07:48.053Z,150.35
2018-03-06T18:10:18.806Z,161.68
2018-03-06T18:12:51.572Z,157.25
2018-03-06T18:15:22.429Z,205.20
2018-03-06T18:17:53.200Z,175.68
2018-03-06T18:20:23.916Z,168.00
2018-03-06T18:22:56.006Z,164.70
2018-03-06T18:25:27.267Z,162.93
2018-03-06T18:27:58.459Z,128.05
2018-03-06T18:30:30.133Z,126.25
2018-03-06T18:33:00.635Z,113.90
2018-03-06T18:35:30.843Z,109.32
2018-03-06T18:38:01.912Z,110.88
2018-03-06T18:40:33.895Z,117.43
2018-03-06T18:43:07.832Z,107.32
2018-03-06T18:45:39.642Z,115.77
2018-03-06T18:48:09.781Z,113.18
2018-03-06T18:50:50.129Z,109.32
2018-03-06T18:53:21.031Z,106.53
2018-03-06T18:55:51.572Z,124.03
2018-03-06T18:58:30.002Z,136.68
2018-03-06T19:01:15.143Z,130.55
2018-03-06T19:06:05.014Z,133.00
2018-03-06T19:08:36.627Z,125.65
2018-03-06T19:11:34.030Z,134.30
2018-03-06T19:14:04.403Z,136.02
2018-03-06T19:16:36.555Z,145.45
2018-03-06T19:19:19.487Z,135.60
2018-03-06T19:21:51.843Z,133.35
2018-03-06T19:24:23.251Z,155.25
2018-03-06T19:26:54.432Z,147.37
2018-03-06T19:29:27.060Z,146.23
2018-03-06T19:31:58.336Z,159.00
2018-03-06T19:34:29.843Z,146.60
2018-03-06T19:37:05.635Z,145.23
2018-03-06T19:39:39.504Z,151.02
2018-03-06T19:42:10.999Z,143.10
2018-03-06T19:44:42.604Z,136.37
2018-03-06T19:47:13.536Z,143.32
2018-03-06T19:49:45.046Z,146.90
2018-03-06T19:52:16.004Z,134.53
2018-03-06T19:54:47.618Z,132.25
2018-03-06T19:57:18.091Z,141.37
2018-03-06T19:59:50.249Z,136.43
2018-03-06T20:02:20.541Z,138.02
2018-03-06T20:04:51.255Z,133.12
2018-03-06T20:07:21.632Z,143.10
2018-03-06T20:09:52.861Z,148.68
2018-03-06T20:12:24.555Z,134.10
2018-03-06T20:15:14.862Z,118.87
2018-03-06T20:17:46.672Z,113.30
2018-03-06T20:20:18.874Z,111.55
2018-03-06T20:22:50.619Z,111.65
2018-03-06T20:25:27.881Z,123.80
2018-03-06T20:27:59.720Z,144.05
2018-03-06T20:30:36.306Z,121.85
2018-03-06T20:33:16.817Z,113.57
2018-03-06T20:35:47.857Z,121.00
2018-03-06T20:38:22.568Z,104.93
2018-03-06T20:40:53.540Z,106.72
2018-03-06T20:43:24.616Z,104.32
2018-03-06T20:45:59.302Z,100.45
2018-03-06T20:48:30.444Z,104.57
2018-03-06T20:51:01.127Z,100.70
2018-03-06T20:53:37.334Z,111.50
2018-03-06T20:56:08.428Z,102.80
2018-03-06T20:58:40.113Z,99.15
2018-03-06T21:01:11.841Z,100.70
2018-03-06T21:03:43.824Z,95.50
2018-03-06T21:06:14.711Z,113.95
2018-03-06T21:08:45.937Z,100.68
2018-03-06T21:11:16.749Z,116.47
2018-03-06T21:13:49.060Z,112.20
2018-03-06T21:16:20.312Z,115.03
2018-03-06T21:18:51.328Z,132.82
2018-03-06T21:21:22.357Z,142.60
2018-03-06T21:23:54.542Z,137.70
2018-03-06T21:26:25.356Z,126.20
2018-03-06T21:28:56.197Z,127.40
2018-03-06T21:31:26.907Z,123.55
2018-03-06T21:33:57.381Z,119.10
2018-03-06T21:36:28.817Z,110.90
2018-03-06T21:39:00.107Z,100.70
2018-03-06T21:41:31.736Z,103.80
2018-03-06T21:44:04.954Z,102.53
2018-03-06T21:46:36.841Z,106.10
2018-03-06T21:49:09.520Z,116.32
2018-03-06T21:51:42.022Z,113.68
2018-03-06T21:54:13.988Z,115.80
2018-03-06T21:56:44.731Z,106.45
2018-03-06T21:59:16.570Z,134.02
2018-03-06T22:01:48.377Z,157.18
2018-03-06T22:04:20.477Z,163.67
2018-03-06T22:06:51.714Z,146.45
2018-03-06T22:09:25.568Z,160.27
2018-03-06T22:11:57.715Z,131.35
2018-03-06T22:14:30.506Z,124.55
2018-03-06T22:17:01.983Z,133.35
2018-03-06T22:19:32.952Z,118.62
2018-03-06T22:22:03.786Z,109.37
2018-03-06T22:24:34.341Z,115.12
2018-03-06T22:27:05.720Z,117.82
2018-03-06T22:29:36.991Z,124.18
2018-03-06T22:32:08.203Z,110.90
2018-03-06T22:34:40.135Z,109.68
2018-03-06T22:37:11.326Z,106.50
2018-03-06T22:39:43.988Z,101.18
2018-03-06T22:42:15.857Z,101.07
2018-03-06T22:44:46.877Z,94.47
2018-03-06T22:47:18.909Z,96.30
2018-03-06T22:49:49.247Z,85.38
2018-03-06T22:52:20.363Z,70.18
2018-03-06T22:54:52.160Z,61.92
2018-03-06T22:57:22.986Z,37.05
2018-03-06T22:59:54.260Z,31.50
2018-03-06T23:02:25.090Z,19.73
2018-03-06T23:04:56.333Z,18.27
2018-03-06T23:07:27.612Z,15.32
2018-03-06T23:09:59.335Z,14.43
2018-03-06T23:12:31.106Z,9.63
2018-03-06T23:15:04.032Z,8.68
2018-03-06T23:17:35.771Z,7.85
2018-03-06T23:20:06.788Z,6.72
2018-03-06T23:22:37.899Z,5.53
2018-03-06T23:25:09.266Z,7.28
2018-03-06T23:27:40.727Z,7.75
2018-03-06T23:30:11.919Z,4.93
2018-03-06T23:32:43.112Z,5.27
2018-03-06T23:35:14.200Z,4.25
2018-03-06T23:37:46.220Z,5.00
2018-03-06T23:40:17.454Z,5.35
2018-03-06T23:42:48.554Z,3.42
2018-03-06T23:45:19.110Z,4.57
2018-03-06T23:47:49.965Z,3.60
2018-03-06T23:50:21.349Z,3.90
2018-03-06T23:52:51.784Z,3.47
2018-03-06T23:55:22.814Z,6.20
2018-03-06T23:57:53.905Z,3.80
